createdAt,value
2019-04-05T00:00:59.545Z,10.87
2019-04-05T00:03:27.184Z,9.27
2019-04-05T00:05:55.126Z,9.40
2019-04-05T00:08:23.039Z,10.73
2019-04-05T00:10:50.677Z,10.13
2019-04-05T00:13:18.976Z,11.30
2019-04-05T00:15:46.605Z,12.33
2019-04-05T00:18:14.611Z,13.90
2019-04-05T00:20:42.797Z,10.33
2019-04-05T00:23:10.788Z,11.93
2019-04-05T00:25:38.692Z,12.17
2019-04-05T00:28:06.650Z,14.07
2019-04-05T00:30:34.960Z,11.50
2019-04-05T00:33:02.857Z,11.40
2019-04-05T00:35:30.504Z,13.30
2019-04-05T00:37:58.488Z,12.00
2019-04-05T00:40:26.706Z,17.40
2019-04-05T00:42:54.708Z,11.07
2019-04-05T00:45:28.406Z,12.03
2019-04-05T00:47:52.477Z,16.87
2019-04-05T00:50:20.874Z,11.27
2019-04-05T00:52:49.447Z,12.80
2019-04-05T00:55:17.360Z,10.30
2019-04-05T00:57:45.353Z,13.80
2019-04-05T01:00:13.416Z,12.47
2019-04-05T01:02:42.049Z,13.93
2019-04-05T01:05:09.783Z,14.80
2019-04-05T01:07:37.447Z,12.03
2019-04-05T01:10:05.932Z,11.67
2019-04-05T01:12:33.577Z,13.13
2019-04-05T01:15:02.309Z,10.27
2019-04-05T01:17:29.961Z,14.30
2019-04-05T01:19:59.613Z,13.17
2019-04-05T01:22:27.459Z,13.33
2019-04-05T01:24:55.471Z,11.30
2019-04-05T01:27:24.674Z,14.50
2019-04-05T01:29:53.301Z,14.10
2019-04-05T01:32:21.509Z,12.40
2019-04-05T01:34:49.741Z,11.27
2019-04-05T01:37:18.491Z,12.83
2019-04-05T01:39:46.564Z,12.83
2019-04-05T01:42:14.231Z,12.93
2019-04-05T01:44:42.501Z,12.10
2019-04-05T01:47:11.013Z,11.53
2019-04-05T01:49:39.400Z,13.30
2019-04-05T01:52:07.033Z,13.10
2019-04-05T01:54:35.214Z,13.87
2019-04-05T01:57:03.111Z,13.03
2019-04-05T01:59:31.126Z,13.30
2019-04-05T02:01:59.198Z,14.27
2019-04-05T02:04:26.860Z,12.40
2019-04-05T02:06:54.878Z,13.13
2019-04-05T02:09:22.854Z,13.60
2019-04-05T02:11:50.759Z,13.83
2019-04-05T02:14:19.048Z,12.97
2019-04-05T02:16:46.805Z,16.53
2019-04-05T02:19:14.672Z,16.27
2019-04-05T02:21:42.832Z,13.80
2019-04-05T02:24:10.997Z,17.50
2019-04-05T02:26:39.008Z,13.67
2019-04-05T02:29:07.260Z,17.20
2019-04-05T02:31:35.185Z,17.63
2019-04-05T02:34:03.426Z,15.30
2019-04-05T02:36:31.117Z,17.47
2019-04-05T02:38:59.381Z,15.90
2019-04-05T02:41:27.974Z,16.97
2019-04-05T02:43:56.569Z,19.27
2019-04-05T02:46:24.794Z,19.67
2019-04-05T02:48:53.389Z,15.13
2019-04-05T02:51:22.763Z,15.03
2019-04-05T02:53:52.042Z,14.67
2019-04-05T02:56:20.206Z,13.30
2019-04-05T02:58:48.787Z,16.40
2019-04-05T03:01:17.526Z,13.60
2019-04-05T03:03:45.532Z,15.90
2019-04-05T03:06:13.276Z,16.23
2019-04-05T03:08:41.947Z,16.40
2019-04-05T03:11:13.939Z,14.43
2019-04-05T03:13:45.711Z,16.00
2019-04-05T03:16:16.352Z,15.83
2019-04-05T03:18:45.958Z,16.67
2019-04-05T03:21:14.866Z,14.80
2019-04-05T03:23:43.933Z,14.90
2019-04-05T03:26:13.585Z,16.97
2019-04-05T03:28:42.841Z,15.03
2019-04-05T03:31:10.952Z,16.60
2019-04-05T03:33:39.685Z,13.73
2019-04-05T03:36:08.476Z,14.20
2019-04-05T03:38:36.569Z,14.03
2019-04-05T03:41:04.887Z,14.50
2019-04-05T03:43:33.685Z,15.73
2019-04-05T03:46:01.319Z,16.00
2019-04-05T03:48:29.297Z,15.40
2019-04-05T03:50:57.239Z,17.03
2019-04-05T03:53:25.250Z,19.57
2019-04-05T03:55:53.744Z,13.90
2019-04-05T03:58:21.463Z,16.23
2019-04-05T04:00:50.493Z,19.37
2019-04-05T04:03:18.642Z,19.23
2019-04-05T04:05:46.858Z,15.90
2019-04-05T04:08:14.821Z,16.10
2019-04-05T04:10:43.136Z,15.87
2019-04-05T04:13:11.232Z,16.30
2019-04-05T04:15:38.885Z,16.83
2019-04-05T04:18:06.866Z,17.07
2019-04-05T04:20:36.828Z,17.20
2019-04-05T04:23:05.299Z,16.83
2019-04-05T04:25:33.036Z,19.47
2019-04-05T04:28:01.384Z,19.20
2019-04-05T04:30:29.510Z,17.10
2019-04-05T04:32:57.522Z,17.00
2019-04-05T04:35:25.171Z,16.90
2019-04-05T04:37:53.117Z,15.57
2019-04-05T04:40:21.429Z,16.57
2019-04-05T04:42:49.373Z,15.17
2019-04-05T04:45:17.330Z,16.23
2019-04-05T04:47:45.185Z,17.00
2019-04-05T04:50:13.436Z,19.50
2019-04-05T04:52:41.358Z,18.33
2019-04-05T04:55:09.868Z,18.57
2019-04-05T04:57:38.105Z,16.97
2019-04-05T05:00:06.111Z,16.50
2019-04-05T05:02:34.117Z,18.17
2019-04-05T05:05:02.108Z,16.73
2019-04-05T05:07:30.058Z,16.93
2019-04-05T05:09:57.869Z,15.37
2019-04-05T05:12:26.257Z,19.37
2019-04-05T05:14:54.088Z,15.00
2019-04-05T05:17:21.744Z,16.50
2019-04-05T05:19:50.076Z,15.30
2019-04-05T05:22:18.661Z,17.20
2019-04-05T05:24:46.676Z,18.20
2019-04-05T05:27:14.652Z,17.67
2019-04-05T05:29:42.767Z,17.90
2019-04-05T05:32:11.100Z,17.27
2019-04-05T05:34:39.313Z,19.40
2019-04-05T05:37:07.599Z,17.27
2019-04-05T05:39:35.870Z,23.43
2019-04-05T05:42:04.354Z,18.73
2019-04-05T05:44:32.713Z,20.03
2019-04-05T05:47:00.756Z,26.30
2019-04-05T05:49:28.723Z,19.93
2019-04-05T05:51:56.819Z,23.70
2019-04-05T05:54:24.716Z,22.20
2019-04-05T05:56:53.005Z,20.80
2019-04-05T05:59:21.258Z,20.00
2019-04-05T06:01:49.332Z,21.70
2019-04-05T06:04:17.266Z,23.97
2019-04-05T06:06:45.226Z,25.93
2019-04-05T06:09:13.157Z,23.50
2019-04-05T06:11:41.083Z,23.87
2019-04-05T06:14:09.039Z,26.57
2019-04-05T06:16:46.438Z,22.27
2019-04-05T06:19:06.437Z,21.87
2019-04-05T06:21:34.422Z,22.43
2019-04-05T06:24:05.131Z,26.10
2019-04-05T06:26:32.000Z,23.23
2019-04-05T06:28:59.640Z,25.60
2019-04-05T06:31:27.527Z,27.97
2019-04-05T06:33:55.487Z,24.53
2019-04-05T06:36:23.114Z,26.03
2019-04-05T06:38:51.539Z,28.63
2019-04-05T06:41:19.999Z,24.77
2019-04-05T06:43:47.972Z,29.63
2019-04-05T06:46:16.154Z,24.90
2019-04-05T06:48:43.788Z,26.43
2019-04-05T06:51:11.424Z,30.50
2019-04-05T06:53:39.339Z,26.07
2019-04-05T06:56:06.990Z,23.77
2019-04-05T06:58:35.185Z,28.13
2019-04-05T07:01:03.158Z,25.80
2019-04-05T07:03:31.431Z,26.60
2019-04-05T07:05:59.086Z,22.53
2019-04-05T07:08:26.725Z,25.70
2019-04-05T07:10:54.693Z,25.43
2019-04-05T07:13:22.896Z,32.67
2019-04-05T07:15:51.105Z,23.17
2019-04-05T07:18:31.537Z,23.57
2019-04-05T07:20:48.839Z,22.90
2019-04-05T07:23:17.089Z,26.40
2019-04-05T07:25:45.201Z,24.00
2019-04-05T07:28:13.533Z,27.73
2019-04-05T07:30:41.176Z,27.60
2019-04-05T07:33:09.046Z,24.77
2019-04-05T07:35:36.842Z,22.27
2019-04-05T07:38:04.997Z,25.17
2019-04-05T07:40:32.630Z,26.57
2019-04-05T07:43:00.968Z,25.87
2019-04-05T07:45:28.609Z,23.30
2019-04-05T07:47:56.514Z,22.60
2019-04-05T07:50:24.403Z,26.03
2019-04-05T07:52:52.056Z,24.20
2019-04-05T07:55:19.955Z,25.17
2019-04-05T07:57:47.877Z,23.10
2019-04-05T08:00:33.892Z,22.53
2019-04-05T08:03:02.446Z,22.37
2019-04-05T08:05:30.378Z,20.67
2019-04-05T08:07:58.311Z,21.70
2019-04-05T08:10:26.616Z,22.67
2019-04-05T08:12:54.473Z,23.90
2019-04-05T08:15:22.737Z,21.40
2019-04-05T08:17:51.058Z,19.90
2019-04-05T08:20:18.954Z,20.90
2019-04-05T08:22:46.952Z,19.50
2019-04-05T08:25:14.589Z,20.20
2019-04-05T08:27:42.511Z,16.83
2019-04-05T08:30:10.488Z,13.93
2019-04-05T08:32:38.456Z,15.17
2019-04-05T08:35:06.425Z,14.90
2019-04-05T08:37:34.063Z,16.70
2019-04-05T08:40:01.738Z,15.33
2019-04-05T08:42:30.094Z,15.30
2019-04-05T08:44:58.030Z,14.30
2019-04-05T08:47:26.053Z,17.73
2019-04-05T08:49:53.932Z,16.60
2019-04-05T08:52:21.904Z,13.57
2019-04-05T08:54:49.823Z,12.97
2019-04-05T08:57:18.149Z,14.10
2019-04-05T08:59:46.488Z,14.57
2019-04-05T09:02:14.440Z,14.57
2019-04-05T09:04:42.331Z,13.03
2019-04-05T09:07:10.284Z,15.73
2019-04-05T09:09:37.935Z,16.43
2019-04-05T09:12:06.479Z,13.73
2019-04-05T09:14:34.233Z,13.50
2019-04-05T09:17:02.393Z,13.23
2019-04-05T09:19:30.272Z,14.67
2019-04-05T09:21:58.199Z,13.60
2019-04-05T09:24:26.180Z,11.57
2019-04-05T09:26:54.551Z,13.53
2019-04-05T09:29:22.729Z,13.83
2019-04-05T09:31:50.650Z,14.07
2019-04-05T09:34:18.568Z,13.00
2019-04-05T09:36:47.711Z,10.70
2019-04-05T09:39:15.986Z,13.60
2019-04-05T09:41:43.973Z,12.87
2019-04-05T09:44:11.992Z,11.87
2019-04-05T09:46:46.418Z,13.37
2019-04-05T09:49:09.361Z,9.97
2019-04-05T09:51:37.229Z,13.00
2019-04-05T09:54:05.401Z,11.20
2019-04-05T09:56:33.660Z,10.40
2019-04-05T09:59:01.749Z,11.50
2019-04-05T10:01:29.684Z,11.57
2019-04-05T10:03:57.988Z,12.23
2019-04-05T10:06:26.300Z,11.30
2019-04-05T10:08:54.884Z,10.67
2019-04-05T10:11:22.515Z,10.57
2019-04-05T10:13:50.191Z,10.67
2019-04-05T10:16:18.210Z,10.10
2019-04-05T10:18:46.213Z,12.80
2019-04-05T10:21:13.840Z,17.40
2019-04-05T10:23:42.098Z,14.67
2019-04-05T10:26:10.267Z,10.90
2019-04-05T10:28:38.232Z,13.60
2019-04-05T10:31:06.201Z,11.83
2019-04-05T10:33:34.685Z,10.63
2019-04-05T10:36:02.869Z,9.93
2019-04-05T10:38:31.037Z,14.17
2019-04-05T10:40:58.972Z,12.03
2019-04-05T10:43:26.608Z,9.73
2019-04-05T10:45:54.541Z,11.90
2019-04-05T10:48:22.168Z,9.50
2019-04-05T10:50:50.689Z,11.83
2019-04-05T10:53:18.299Z,12.60
2019-04-05T10:55:45.948Z,9.80
2019-04-05T10:58:13.572Z,13.37
2019-04-05T11:00:41.579Z,12.10
2019-04-05T11:03:09.810Z,12.83
2019-04-05T11:05:38.240Z,10.40
2019-04-05T11:08:06.153Z,11.13
2019-04-05T11:10:34.080Z,13.10
2019-04-05T11:13:02.038Z,12.77
2019-04-05T11:15:31.043Z,13.80
2019-04-05T11:17:59.043Z,14.40
2019-04-05T11:20:27.230Z,12.17
2019-04-05T11:22:54.884Z,12.33
2019-04-05T11:25:22.528Z,13.67
2019-04-05T11:27:50.467Z,12.70
2019-04-05T11:30:22.824Z,13.43
2019-04-05T11:32:50.458Z,9.47
2019-04-05T11:35:18.435Z,14.57
2019-04-05T11:37:49.928Z,13.27
2019-04-05T11:40:16.205Z,15.57
2019-04-05T11:42:44.844Z,12.97
2019-04-05T11:45:13.055Z,12.70
2019-04-05T11:47:41.146Z,15.27
2019-04-05T11:50:09.188Z,13.83
2019-04-05T11:52:37.481Z,18.83
2019-04-05T11:55:05.860Z,12.60
2019-04-05T11:57:33.868Z,12.17
2019-04-05T12:00:01.565Z,13.17
2019-04-05T12:02:35.131Z,13.60
2019-04-05T12:05:03.019Z,13.13
2019-04-05T12:07:30.660Z,13.37
2019-04-05T12:09:58.284Z,14.87
2019-04-05T12:12:25.945Z,12.60
2019-04-05T12:14:53.978Z,17.07
2019-04-05T12:17:21.698Z,14.63
2019-04-05T12:19:49.687Z,21.47
2019-04-05T12:22:19.936Z,16.33
2019-04-05T12:24:47.693Z,16.00
2019-04-05T12:27:16.068Z,14.60
2019-04-05T12:29:43.943Z,15.43
2019-04-05T12:32:13.430Z,15.10
2019-04-05T12:34:41.521Z,15.23
2019-04-05T12:37:09.728Z,15.07
2019-04-05T12:39:37.673Z,13.00
2019-04-05T12:42:05.987Z,20.53
2019-04-05T12:44:33.743Z,14.67
2019-04-05T12:47:01.363Z,16.87
2019-04-05T12:49:29.989Z,13.40
2019-04-05T12:51:57.626Z,14.90
2019-04-05T12:54:25.831Z,13.73
2019-04-05T12:56:54.226Z,13.80
2019-04-05T12:59:25.138Z,13.97
2019-04-05T13:01:52.135Z,16.20
2019-04-05T13:04:20.624Z,14.80
2019-04-05T13:06:50.574Z,13.70
2019-04-05T13:09:18.380Z,15.90
2019-04-05T13:11:46.420Z,16.73
2019-04-05T13:14:14.428Z,14.63
2019-04-05T13:16:42.325Z,15.50
2019-04-05T13:19:09.964Z,14.30
2019-04-05T13:21:38.253Z,12.87
2019-04-05T13:24:09.422Z,13.63
2019-04-05T13:26:36.984Z,14.00
2019-04-05T13:29:05.127Z,14.50
2019-04-05T13:31:32.751Z,13.97
2019-04-05T13:34:00.389Z,13.40
2019-04-05T13:36:28.628Z,14.30
2019-04-05T13:38:59.607Z,14.33
2019-04-05T13:41:26.628Z,12.70
2019-04-05T13:43:54.519Z,14.40
2019-04-05T13:46:25.877Z,12.40
2019-04-05T13:48:52.512Z,14.33
2019-04-05T13:51:27.854Z,12.07
2019-04-05T13:53:50.177Z,11.80
2019-04-05T13:56:18.120Z,13.70
2019-04-05T13:58:46.890Z,12.53
2019-04-05T14:01:15.088Z,14.37
2019-04-05T14:03:43.022Z,14.70
2019-04-05T14:06:11.604Z,12.37
2019-04-05T14:08:41.778Z,12.20
2019-04-05T14:11:10.481Z,11.60
2019-04-05T14:13:42.663Z,13.83
2019-04-05T14:16:08.537Z,12.20
2019-04-05T14:18:36.449Z,12.70
2019-04-05T14:21:04.621Z,13.07
2019-04-05T14:23:32.253Z,13.90
2019-04-05T14:26:00.527Z,11.33
2019-04-05T14:28:28.730Z,13.00
2019-04-05T14:30:56.374Z,12.90
2019-04-05T14:33:24.723Z,12.77
2019-04-05T14:35:54.682Z,12.77
2019-04-05T14:38:23.280Z,13.33
2019-04-05T14:40:51.528Z,12.27
2019-04-05T14:43:21.370Z,12.57
2019-04-05T14:45:49.641Z,14.40
2019-04-05T14:48:17.910Z,13.93
2019-04-05T14:50:45.996Z,13.73
2019-04-05T14:53:13.900Z,15.67
2019-04-05T14:55:42.126Z,15.33
2019-04-05T14:58:10.665Z,14.07
2019-04-05T15:00:39.498Z,14.30
2019-04-05T15:03:07.399Z,14.93
2019-04-05T15:05:35.039Z,16.37
2019-04-05T15:08:02.789Z,15.03
2019-04-05T15:10:30.857Z,15.03
2019-04-05T15:13:00.211Z,18.23
2019-04-05T15:15:28.922Z,17.60
2019-04-05T15:17:56.957Z,18.10
2019-04-05T15:20:24.849Z,17.67
2019-04-05T15:22:53.058Z,17.70
2019-04-05T15:25:21.845Z,16.80
2019-04-05T15:27:53.828Z,17.00
2019-04-05T15:30:19.784Z,21.93
2019-04-05T15:32:51.190Z,24.63
2019-04-05T15:35:18.124Z,18.90
2019-04-05T15:37:45.764Z,18.10
2019-04-05T15:40:13.409Z,16.50
2019-04-05T15:42:42.036Z,17.83
2019-04-05T15:45:10.108Z,17.27
2019-04-05T15:47:37.846Z,18.40
2019-04-05T15:50:06.678Z,21.20
2019-04-05T15:52:35.044Z,17.73
2019-04-05T15:55:03.769Z,17.90
2019-04-05T15:57:34.245Z,18.10
2019-04-05T16:00:04.044Z,16.87
2019-04-05T16:02:33.026Z,16.90
2019-04-05T16:05:01.413Z,18.33
2019-04-05T16:07:29.451Z,20.33
2019-04-05T16:09:57.458Z,22.73
2019-04-05T16:12:25.643Z,24.13
2019-04-05T16:14:53.675Z,26.60
2019-04-05T16:17:21.595Z,24.90
2019-04-05T16:19:49.956Z,26.53
2019-04-05T16:22:30.647Z,22.00
2019-04-05T16:24:47.781Z,27.97
2019-04-05T16:27:15.857Z,20.70
2019-04-05T16:29:43.524Z,26.60
2019-04-05T16:32:12.836Z,37.90
2019-04-05T16:34:41.040Z,26.33
2019-04-05T16:37:08.916Z,22.43
2019-04-05T16:39:37.404Z,25.93
2019-04-05T16:42:05.539Z,23.40
2019-04-05T16:44:33.709Z,22.40
2019-04-05T16:47:01.888Z,23.70
2019-04-05T16:49:31.404Z,24.63
2019-04-05T16:51:59.034Z,26.37
2019-04-05T16:54:26.695Z,22.40
2019-04-05T16:56:54.648Z,23.93
2019-04-05T16:59:22.584Z,21.90
2019-04-05T17:01:50.227Z,26.17
2019-04-05T17:04:18.257Z,21.73
2019-04-05T17:06:45.938Z,26.30
2019-04-05T17:09:14.422Z,24.03
2019-04-05T17:11:42.644Z,24.30
2019-04-05T17:14:10.752Z,23.17
2019-04-05T17:16:38.425Z,25.70
2019-04-05T17:19:06.978Z,28.97
2019-04-05T17:21:34.919Z,37.47
2019-04-05T17:24:02.796Z,25.87
2019-04-05T17:26:30.435Z,25.30
2019-04-05T17:28:58.316Z,31.13
2019-04-05T17:31:26.240Z,26.27
2019-04-05T17:33:54.174Z,26.90
2019-04-05T17:36:22.089Z,25.27
2019-04-05T17:38:50.098Z,25.63
2019-04-05T17:41:18.450Z,24.80
2019-04-05T17:43:46.820Z,26.67
2019-04-05T17:46:16.320Z,24.40
2019-04-05T17:48:44.805Z,25.20
2019-04-05T17:51:12.543Z,21.70
2019-04-05T17:53:40.465Z,23.03
2019-04-05T17:56:08.410Z,22.70
2019-04-05T17:58:36.791Z,24.07
2019-04-05T18:01:05.060Z,24.60
2019-04-05T18:03:33.336Z,23.43
2019-04-05T18:06:00.987Z,27.70
2019-04-05T18:08:29.497Z,26.87
2019-04-05T18:10:57.617Z,24.70
2019-04-05T18:13:25.828Z,26.27
2019-04-05T18:15:53.474Z,22.00
2019-04-05T18:18:21.483Z,31.23
2019-04-05T18:20:49.193Z,27.80
2019-04-05T18:23:25.008Z,27.83
2019-04-05T18:25:47.728Z,26.20
2019-04-05T18:28:15.649Z,25.97
2019-04-05T18:30:43.282Z,28.00
2019-04-05T18:33:11.452Z,26.30
2019-04-05T18:35:39.090Z,26.30
2019-04-05T18:38:06.820Z,26.67
2019-04-05T18:40:40.330Z,22.90
2019-04-05T18:43:05.269Z,27.17
2019-04-05T18:45:33.713Z,29.03
2019-04-05T18:48:01.838Z,23.97
2019-04-05T18:50:29.749Z,25.83
2019-04-05T18:52:58.224Z,27.17
2019-04-05T18:55:26.161Z,28.27
2019-04-05T18:57:53.796Z,25.70
2019-04-05T19:00:21.720Z,27.67
2019-04-05T19:02:49.424Z,26.07
2019-04-05T19:05:17.741Z,25.20
2019-04-05T19:07:45.386Z,25.77
2019-04-05T19:10:13.356Z,26.57
2019-04-05T19:12:41.533Z,25.83
2019-04-05T19:15:09.965Z,25.47
2019-04-05T19:17:37.617Z,23.40
2019-04-05T19:20:05.544Z,28.83
2019-04-05T19:22:33.201Z,24.40
2019-04-05T19:25:01.227Z,28.63
2019-04-05T19:27:29.212Z,29.90
2019-04-05T19:29:57.164Z,27.73
2019-04-05T19:49:52.333Z,26.97
2019-04-05T19:52:20.505Z,30.20
2019-04-05T19:54:48.971Z,27.07
2019-04-05T19:57:17.325Z,29.43
2019-04-05T19:59:45.501Z,24.70
2019-04-05T20:02:13.473Z,28.13
2019-04-05T20:04:41.211Z,28.00
2019-04-05T20:07:09.374Z,27.63
2019-04-05T20:09:37.034Z,26.60
2019-04-05T20:12:04.956Z,29.83
2019-04-05T20:14:32.933Z,26.03
2019-04-05T20:17:00.585Z,30.60
2019-04-05T20:19:28.739Z,31.70
2019-04-05T20:21:57.002Z,24.40
2019-04-05T20:24:25.151Z,31.60
2019-04-05T20:26:53.073Z,26.27
2019-04-05T20:29:21.778Z,28.90
2019-04-05T20:31:50.440Z,25.10
2019-04-05T20:34:18.441Z,27.60
2019-04-05T20:36:46.487Z,26.30
2019-04-05T20:39:14.504Z,22.50
2019-04-05T20:41:42.671Z,28.33
2019-04-05T20:44:10.307Z,24.50
2019-04-05T20:46:38.364Z,27.93
2019-04-05T20:49:06.017Z,24.70
2019-04-05T20:51:34.895Z,24.20
2019-04-05T20:54:02.603Z,23.67
2019-04-05T20:56:30.561Z,24.70
2019-04-05T20:58:58.272Z,23.10
2019-04-05T21:01:26.580Z,26.23
2019-04-05T21:03:54.682Z,25.77
2019-04-05T21:06:22.661Z,25.77
2019-04-05T21:08:51.301Z,27.07
2019-04-05T21:11:19.191Z,25.40
2019-04-05T21:13:47.861Z,25.60
2019-04-05T21:16:15.824Z,24.20
2019-04-05T21:18:43.855Z,22.93
2019-04-05T21:21:11.911Z,24.43
2019-04-05T21:23:40.215Z,25.57
2019-04-05T21:26:08.136Z,25.30
2019-04-05T21:28:36.054Z,25.90
2019-04-05T21:31:03.863Z,25.67
2019-04-05T21:33:31.648Z,24.13
2019-04-05T21:35:59.851Z,26.10
2019-04-05T21:38:28.019Z,25.43
2019-04-05T21:40:56.024Z,23.53
2019-04-05T21:43:23.713Z,22.10
2019-04-05T21:45:51.363Z,24.47
2019-04-05T21:48:23.309Z,23.13
2019-04-05T21:50:51.688Z,24.40
2019-04-05T21:53:19.398Z,23.77
2019-04-05T21:55:47.698Z,19.70
2019-04-05T21:58:15.736Z,22.47
2019-04-05T22:00:45.409Z,24.47
2019-04-05T22:03:13.049Z,22.17
2019-04-05T22:05:40.784Z,20.70
2019-04-05T22:08:09.096Z,20.47
2019-04-05T22:10:37.600Z,22.73
2019-04-05T22:13:05.478Z,23.10
2019-04-05T22:15:33.195Z,20.40
2019-04-05T22:18:00.841Z,22.27
2019-04-05T22:20:28.803Z,21.93
2019-04-05T22:22:56.748Z,20.83
2019-04-05T22:25:25.198Z,20.37
2019-04-05T22:27:53.609Z,19.30
2019-04-05T22:30:21.615Z,22.40
2019-04-05T22:32:49.568Z,22.90
2019-04-05T22:35:17.221Z,22.47
2019-04-05T22:37:44.862Z,24.43
2019-04-05T22:40:13.080Z,21.07
2019-04-05T22:42:41.160Z,20.30
2019-04-05T22:45:09.340Z,20.60
2019-04-05T22:47:37.568Z,20.03
2019-04-05T22:50:05.568Z,22.90
2019-04-05T22:52:33.859Z,19.67
2019-04-05T22:55:10.906Z,20.37
2019-04-05T22:57:32.137Z,22.60
2019-04-05T22:59:59.791Z,20.33
2019-04-05T23:02:28.004Z,21.47
2019-04-05T23:04:55.656Z,21.37
2019-04-05T23:07:23.627Z,21.83
2019-04-05T23:09:51.262Z,21.93
2019-04-05T23:12:18.917Z,19.60
2019-04-05T23:14:47.226Z,19.77
2019-04-05T23:17:15.674Z,18.83
2019-04-05T23:19:44.724Z,18.97
2019-04-05T23:22:12.741Z,18.63
2019-04-05T23:24:41.032Z,17.40
2019-04-05T23:27:09.453Z,18.40
2019-04-05T23:29:37.414Z,16.17
2019-04-05T23:32:05.500Z,19.60
2019-04-05T23:34:33.507Z,21.00
2019-04-05T23:37:01.842Z,21.70
2019-04-05T23:39:29.792Z,21.80
2019-04-05T23:41:57.840Z,17.07
2019-04-05T23:44:26.158Z,16.53
2019-04-05T23:46:54.039Z,22.27
2019-04-05T23:49:22.044Z,17.50
2019-04-05T23:51:49.683Z,18.60
2019-04-05T23:54:17.338Z,17.77
2019-04-05T23:56:45.598Z,17.63
2019-04-05T23:59:13.616Z,19.37
